Time;durP1;ratioP1;P1;durP2;ratioP2;P2;SDS_P1;SDS_P2;PMS_P1;PMS_P2;Temp;Humidity;BMP_temperature;BMP_pressure;BME280_temperature;BME280_humidity;BME280_pressure;Samples;Min_cycle;Max_cycle;Signal;HPM_P1;HPM_P2
2023/11/07 00:01:30;;;;;;;3.15;1.60;;;12.00;99.20;;;;;;5084925;28;20643;-70
2023/11/07 00:04:16;;;;;;;2.47;1.27;;;12.10;99.20;;;;;;5093201;28;20056;-70
2023/11/07 00:07:02;;;;;;;3.25;1.35;;;12.10;99.20;;;;;;5078826;28;20055;-70
2023/11/07 00:09:49;;;;;;;4.45;1.40;;;12.20;99.20;;;;;;5089053;28;20051;-71
2023/11/07 00:12:35;;;;;;;1.60;1.30;;;12.20;99.10;;;;;;5066188;28;20037;-71
2023/11/07 00:15:21;;;;;;;2.50;0.90;;;12.20;99.10;;;;;;5069758;28;20123;-71
2023/11/07 00:18:07;;;;;;;3.38;1.35;;;12.20;99.10;;;;;;5060025;28;20468;-72
2023/11/07 00:20:53;;;;;;;1.95;1.00;;;12.20;99.10;;;;;;5049679;28;20055;-72
2023/11/07 00:23:39;;;;;;;2.42;1.00;;;12.20;99.00;;;;;;5049429;28;20033;-71
2023/11/07 00:26:25;;;;;;;6.38;1.58;;;12.20;99.00;;;;;;5063083;28;20504;-71
2023/11/07 00:29:15;;;;;;;4.70;1.38;;;12.30;99.00;;;;;;5069306;28;20379;-70
2023/11/07 00:32:01;;;;;;;2.47;1.17;;;12.20;98.90;;;;;;5069022;28;20418;-71
2023/11/07 00:34:47;;;;;;;2.60;1.20;;;12.30;99.00;;;;;;5068959;28;20043;-71
2023/11/07 00:37:34;;;;;;;7.57;1.88;;;12.20;99.00;;;;;;5068698;28;20040;-71
2023/11/07 00:40:20;;;;;;;2.40;1.38;;;12.20;99.00;;;;;;5059939;28;20426;-71
2023/11/07 00:43:05;;;;;;;2.92;1.30;;;12.20;99.20;;;;;;5049113;28;20407;-72
2023/11/07 00:45:52;;;;;;;2.80;1.10;;;12.10;99.00;;;;;;5049088;28;20583;-72
2023/11/07 00:48:38;;;;;;;2.50;1.40;;;12.10;99.00;;;;;;5048477;28;20048;-70
2023/11/07 00:51:24;;;;;;;2.65;1.00;;;12.10;99.10;;;;;;5061884;28;20090;-70
2023/11/07 00:54:12;;;;;;;3.47;1.17;;;12.10;99.20;;;;;;5067113;28;20063;-70
2023/11/07 00:56:58;;;;;;;3.55;1.60;;;12.00;99.20;;;;;;5033974;28;20040;-70
2023/11/07 00:59:44;;;;;;;3.72;1.27;;;12.00;99.20;;;;;;5047997;28;20033;-70
2023/11/07 01:02:30;;;;;;;2.75;1.30;;;12.00;99.30;;;;;;5034766;28;20051;-71
2023/11/07 01:05:16;;;;;;;1.90;1.00;;;12.00;99.30;;;;;;5049142;28;20090;-71
2023/11/07 01:08:02;;;;;;;1.58;0.93;;;11.90;99.30;;;;;;5060892;28;20041;-71
2023/11/07 01:10:47;;;;;;;1.95;0.95;;;11.90;99.30;;;;;;5062048;28;20194;-71
2023/11/07 01:13:33;;;;;;;2.25;1.10;;;11.80;99.40;;;;;;5062020;28;20124;-72
2023/11/07 01:16:19;;;;;;;3.75;1.30;;;11.70;99.40;;;;;;5060772;28;20044;-71
2023/11/07 01:19:05;;;;;;;1.60;1.25;;;11.70;99.40;;;;;;5068922;28;20040;-72
2023/11/07 01:21:51;;;;;;;3.65;1.10;;;11.70;99.50;;;;;;5069251;28;20072;-71
2023/11/07 01:24:37;;;;;;;2.47;1.35;;;11.70;99.60;;;;;;5067059;28;20040;-72
2023/11/07 01:27:24;;;;;;;5.38;1.10;;;11.70;99.60;;;;;;5069314;28;20048;-71
2023/11/07 01:30:10;;;;;;;3.33;1.40;;;11.60;99.60;;;;;;5069621;28;20037;-71
2023/11/07 01:32:57;;;;;;;3.50;1.35;;;11.60;99.70;;;;;;5069019;28;20054;-70
2023/11/07 01:35:43;;;;;;;3.08;0.95;;;11.60;99.70;;;;;;5055501;28;20041;-72
2023/11/07 01:38:29;;;;;;;3.33;1.60;;;11.50;99.80;;;;;;5065941;28;20498;-70
2023/11/07 01:41:15;;;;;;;2.38;1.25;;;11.50;99.80;;;;;;5052591;28;20528;-71
2023/11/07 01:44:01;;;;;;;3.22;1.30;;;11.50;99.80;;;;;;5052602;28;20482;-72
2023/11/07 01:46:47;;;;;;;3.63;1.55;;;11.50;99.90;;;;;;5067575;28;20516;-71
2023/11/07 01:49:33;;;;;;;1.17;0.80;;;11.40;99.90;;;;;;5052971;28;20132;-72
2023/11/07 01:52:20;;;;;;;4.47;1.50;;;11.40;99.90;;;;;;5055098;28;20040;-71
2023/11/07 01:55:08;;;;;;;2.33;1.00;;;11.40;99.90;;;;;;5059120;28;20052;-72
2023/11/07 01:57:56;;;;;;;3.58;1.30;;;11.40;99.90;;;;;;5072129;28;20047;-72
2023/11/07 02:00:43;;;;;;;1.67;1.00;;;11.30;99.90;;;;;;5072345;28;20040;-71
2023/11/07 02:03:30;;;;;;;1.65;1.25;;;11.30;99.90;;;;;;5072316;28;20084;-72
2023/11/07 02:06:16;;;;;;;1.67;1.00;;;11.30;99.90;;;;;;5054910;28;20135;-72
2023/11/07 02:09:02;;;;;;;3.83;1.17;;;11.20;99.90;;;;;;5060696;28;20056;-72
2023/11/07 02:11:48;;;;;;;2.10;1.20;;;11.20;99.90;;;;;;5051407;28;20414;-72
2023/11/07 02:14:36;;;;;;;1.58;1.10;;;11.20;99.90;;;;;;5051029;28;20116;-72
2023/11/07 02:17:22;;;;;;;1.65;0.85;;;11.20;99.90;;;;;;5052077;28;20149;-72
2023/11/07 02:20:08;;;;;;;2.63;0.82;;;11.20;99.90;;;;;;5065167;28;20044;-72
2023/11/07 02:23:06;;;;;;;3.47;1.50;;;11.10;99.90;;;;;;5053275;28;20041;-73
2023/11/07 02:25:52;;;;;;;3.33;1.40;;;11.10;99.90;;;;;;5054781;28;20464;-73
2023/11/07 02:28:38;;;;;;;1.65;0.98;;;11.10;99.90;;;;;;5066210;28;20036;-72
2023/11/07 02:31:24;;;;;;;2.67;1.38;;;11.10;99.90;;;;;;5070620;28;20371;-73
2023/11/07 02:34:11;;;;;;;2.30;0.90;;;11.10;99.90;;;;;;5071053;28;20557;-72
2023/11/07 02:36:57;;;;;;;1.17;1.05;;;11.00;99.90;;;;;;5055924;28;20175;-69
2023/11/07 02:39:42;;;;;;;3.05;1.20;;;11.00;99.90;;;;;;5051975;28;20075;-71
2023/11/07 02:42:29;;;;;;;1.58;1.10;;;11.00;99.90;;;;;;5051431;28;20041;-71
2023/11/07 02:45:16;;;;;;;1.67;0.90;;;10.90;99.90;;;;;;5062345;28;20489;-70
2023/11/07 02:48:03;;;;;;;1.35;0.90;;;10.90;99.90;;;;;;5071422;28;20040;-70
2023/11/07 02:50:49;;;;;;;1.65;1.00;;;10.90;99.90;;;;;;5070219;28;20067;-70
2023/11/07 02:53:35;;;;;;;2.22;1.20;;;10.90;99.90;;;;;;5068500;28;20048;-70
2023/11/07 02:56:25;;;;;;;1.67;0.90;;;10.90;99.90;;;;;;5071458;28;20051;-67
2023/11/07 02:59:11;;;;;;;2.03;1.33;;;10.90;99.90;;;;;;5069267;28;20047;-68
2023/11/07 03:01:58;;;;;;;1.23;0.90;;;10.90;99.90;;;;;;5064961;28;20395;-67
2023/11/07 03:04:44;;;;;;;3.63;1.30;;;10.90;99.90;;;;;;5050237;28;20045;-68
2023/11/07 03:07:31;;;;;;;3.35;1.35;;;10.80;99.90;;;;;;5054634;28;20080;-68
2023/11/07 03:10:17;;;;;;;1.63;1.02;;;10.80;99.90;;;;;;5059356;28;20087;-68
2023/11/07 03:13:02;;;;;;;1.85;1.00;;;10.80;99.90;;;;;;5054014;28;20050;-68
2023/11/07 03:15:48;;;;;;;2.20;0.98;;;10.80;99.90;;;;;;5050392;28;20184;-68
2023/11/07 03:18:34;;;;;;;1.20;1.10;;;10.80;99.90;;;;;;5066517;28;20091;-68
2023/11/07 03:21:21;;;;;;;1.48;1.35;;;10.80;99.90;;;;;;5070130;28;20493;-68
2023/11/07 03:24:10;;;;;;;1.45;0.90;;;10.80;99.90;;;;;;5070503;28;20095;-68
2023/11/07 03:26:56;;;;;;;1.50;1.05;;;10.80;99.90;;;;;;5069275;28;20198;-68
2023/11/07 03:29:42;;;;;;;1.48;1.00;;;10.80;99.90;;;;;;5069538;28;20414;-68
2023/11/07 03:32:28;;;;;;;1.77;1.10;;;10.80;99.90;;;;;;5070076;28;20102;-68
2023/11/07 03:35:14;;;;;;;2.50;0.98;;;10.70;99.90;;;;;;5065594;28;20088;-69
2023/11/07 03:38:00;;;;;;;3.22;1.58;;;10.70;99.90;;;;;;5069543;28;20051;-68
2023/11/07 03:40:46;;;;;;;1.45;0.98;;;10.70;99.90;;;;;;5070723;28;20064;-69
2023/11/07 03:43:35;;;;;;;1.73;1.10;;;10.70;99.90;;;;;;5069915;28;20040;-69
2023/11/07 03:46:21;;;;;;;2.20;1.15;;;10.60;99.90;;;;;;5069755;28;20052;-67
2023/11/07 03:49:07;;;;;;;3.00;1.20;;;10.60;99.90;;;;;;5055373;28;20536;-67
2023/11/07 03:51:53;;;;;;;3.58;1.10;;;10.60;99.90;;;;;;5069579;28;20520;-67
2023/11/07 03:54:39;;;;;;;2.30;1.20;;;10.60;99.90;;;;;;5048991;28;20106;-67
2023/11/07 03:57:25;;;;;;;2.42;1.27;;;10.60;99.90;;;;;;5070253;28;20044;-67
2023/11/07 04:00:11;;;;;;;2.67;1.08;;;10.60;99.90;;;;;;5069397;28;20059;-68
2023/11/07 04:02:57;;;;;;;2.08;1.00;;;10.60;99.90;;;;;;5069011;28;20033;-67
2023/11/07 04:05:43;;;;;;;2.50;1.15;;;10.60;99.90;;;;;;5068861;28;20063;-67
2023/11/07 04:08:29;;;;;;;1.98;1.08;;;10.60;99.90;;;;;;5066469;28;20043;-68
2023/11/07 04:11:15;;;;;;;0.82;0.82;;;10.60;99.90;;;;;;5057941;28;20072;-68
2023/11/07 04:14:01;;;;;;;1.40;0.85;;;10.60;99.90;;;;;;5051430;28;20037;-67
2023/11/07 04:16:48;;;;;;;1.83;0.90;;;10.60;99.90;;;;;;5049432;28;20128;-67
2023/11/07 04:19:35;;;;;;;2.67;1.10;;;10.60;99.90;;;;;;5049762;28;20052;-68
2023/11/07 04:22:21;;;;;;;1.65;0.98;;;10.60;99.90;;;;;;5067245;28;20036;-67
2023/11/07 04:25:07;;;;;;;1.58;1.10;;;10.60;99.90;;;;;;5070801;28;20044;-67
2023/11/07 04:27:53;;;;;;;1.38;0.95;;;10.50;99.90;;;;;;5070428;28;20374;-68
2023/11/07 04:30:39;;;;;;;2.03;1.10;;;10.50;99.90;;;;;;5048781;28;20447;-68
2023/11/07 04:33:26;;;;;;;2.53;1.45;;;10.50;99.90;;;;;;5050963;28;20410;-69
2023/11/07 04:36:13;;;;;;;2.03;1.00;;;10.50;99.90;;;;;;5048727;28;20045;-69
2023/11/07 04:38:59;;;;;;;1.85;1.20;;;10.50;99.90;;;;;;5046101;28;20083;-68
2023/11/07 04:41:46;;;;;;;3.35;1.40;;;10.50;99.90;;;;;;5048328;28;20490;-68
2023/11/07 04:44:33;;;;;;;2.67;1.17;;;10.50;99.90;;;;;;5062170;28;20086;-68
2023/11/07 04:47:20;;;;;;;3.13;1.00;;;10.50;99.90;;;;;;5069238;28;20075;-68
2023/11/07 04:50:06;;;;;;;3.58;1.33;;;10.40;99.90;;;;;;5069485;28;20124;-69
2023/11/07 04:52:55;;;;;;;3.83;1.50;;;10.40;99.90;;;;;;5068015;28;20048;-69
2023/11/07 04:55:41;;;;;;;3.47;1.25;;;10.40;99.90;;;;;;5061780;28;20166;-70
2023/11/07 04:58:27;;;;;;;5.20;1.60;;;10.40;99.90;;;;;;5061407;28;20049;-70
2023/11/07 05:01:13;;;;;;;2.47;1.50;;;10.30;99.90;;;;;;5050253;28;20146;-70
2023/11/07 05:03:59;;;;;;;1.65;1.00;;;10.30;99.90;;;;;;5059400;28;20053;-69
2023/11/07 05:06:46;;;;;;;2.38;0.93;;;10.30;99.90;;;;;;5068712;28;20060;-69
2023/11/07 05:09:32;;;;;;;6.43;1.45;;;10.30;99.90;;;;;;5076476;28;20430;-68
2023/11/07 05:12:18;;;;;;;2.97;1.17;;;10.20;99.90;;;;;;5057937;28;20398;-70
2023/11/07 05:15:05;;;;;;;2.15;1.13;;;10.20;99.90;;;;;;5054952;28;20044;-62
2023/11/07 05:17:51;;;;;;;2.38;1.55;;;10.20;99.90;;;;;;5053229;28;20065;-61
2023/11/07 05:20:38;;;;;;;3.25;1.73;;;10.20;99.90;;;;;;5062611;28;20036;-60
2023/11/07 05:23:24;;;;;;;1.52;1.05;;;10.20;99.90;;;;;;5066084;28;20045;-60
2023/11/07 05:26:11;;;;;;;2.25;1.33;;;10.20;99.90;;;;;;5071606;28;20540;-61
2023/11/07 05:28:57;;;;;;;3.25;1.52;;;10.20;99.90;;;;;;5072034;28;20040;-60
2023/11/07 05:31:43;;;;;;;2.33;1.20;;;10.20;99.90;;;;;;5070248;28;20041;-59
2023/11/07 05:34:29;;;;;;;4.15;1.70;;;10.20;99.90;;;;;;5071667;28;20098;-60
2023/11/07 05:37:18;;;;;;;4.30;1.50;;;10.20;99.90;;;;;;5069301;28;20052;-58
2023/11/07 05:40:04;;;;;;;2.15;1.38;;;10.30;99.90;;;;;;5060280;28;20473;-59
2023/11/07 05:42:52;;;;;;;3.25;1.35;;;10.30;99.90;;;;;;5071646;28;20065;-59
2023/11/07 05:45:38;;;;;;;1.50;1.10;;;10.30;99.90;;;;;;5071474;28;20084;-59
2023/11/07 05:48:24;;;;;;;4.18;1.42;;;10.20;99.90;;;;;;5052739;28;20064;-58
2023/11/07 05:51:10;;;;;;;2.13;1.25;;;10.20;99.90;;;;;;5055241;28;20115;-59
2023/11/07 05:53:56;;;;;;;5.50;1.55;;;10.20;99.90;;;;;;5056171;28;20716;-59
2023/11/07 05:56:41;;;;;;;3.60;1.05;;;10.20;99.90;;;;;;5060711;28;20067;-60
2023/11/07 05:59:27;;;;;;;2.22;1.20;;;10.20;99.90;;;;;;5067844;28;20036;-60
2023/11/07 06:02:13;;;;;;;2.13;1.20;;;10.20;99.90;;;;;;5058907;28;20119;-59
2023/11/07 06:04:59;;;;;;;3.08;1.33;;;10.20;99.90;;;;;;5070255;28;20417;-60
2023/11/07 06:07:45;;;;;;;3.28;1.55;;;10.30;99.90;;;;;;5071856;28;20131;-60
2023/11/07 06:10:31;;;;;;;2.40;1.50;;;10.20;99.90;;;;;;5062372;28;20040;-62
2023/11/07 06:13:17;;;;;;;2.80;1.38;;;10.20;99.90;;;;;;5056736;28;20094;-59
2023/11/07 06:21:34;;;;;;;2.75;1.52;;;10.30;99.90;;;;;;5059898;28;20125;-59
2023/11/07 06:24:21;;;;;;;3.17;1.80;;;10.30;99.90;;;;;;5054868;28;20056;-59
2023/11/07 06:27:07;;;;;;;4.25;2.00;;;10.20;99.90;;;;;;5051099;28;20544;-59
2023/11/07 06:29:53;;;;;;;3.30;1.48;;;10.30;99.90;;;;;;5050138;28;20045;-60
2023/11/07 06:32:39;;;;;;;2.33;1.73;;;10.30;99.90;;;;;;5051176;28;20048;-58
2023/11/07 06:35:26;;;;;;;3.20;1.45;;;10.20;99.90;;;;;;5070750;28;20043;-59
2023/11/07 06:38:12;;;;;;;6.82;1.90;;;10.30;99.90;;;;;;5049195;28;20837;-60
2023/11/07 06:40:57;;;;;;;3.78;1.75;;;10.20;99.90;;;;;;5063566;28;20480;-60
2023/11/07 06:43:46;;;;;;;3.65;1.92;;;10.30;99.90;;;;;;5054395;28;20036;-58
2023/11/07 06:46:32;;;;;;;4.93;2.30;;;10.20;99.90;;;;;;5054626;28;20374;-59
2023/11/07 06:49:18;;;;;;;4.28;1.80;;;10.30;99.90;;;;;;5069552;28;20129;-60
2023/11/07 06:52:05;;;;;;;3.20;1.98;;;10.30;99.90;;;;;;5069513;28;20066;-59
2023/11/07 06:54:51;;;;;;;2.72;1.77;;;10.30;99.90;;;;;;5070067;28;20040;-60
2023/11/07 06:57:38;;;;;;;2.88;1.88;;;10.30;99.90;;;;;;5068328;28;20125;-60
2023/11/07 07:00:29;;;;;;;3.92;2.13;;;10.30;99.90;;;;;;5069917;28;20398;-59
2023/11/07 07:03:15;;;;;;;5.30;1.88;;;10.40;99.90;;;;;;5055202;28;20045;-59
2023/11/07 07:06:01;;;;;;;3.35;1.92;;;10.40;99.90;;;;;;5049690;28;20126;-59
2023/11/07 07:08:47;;;;;;;3.67;1.65;;;10.50;99.90;;;;;;5050502;28;20033;-59
2023/11/07 07:11:33;;;;;;;4.03;2.10;;;10.40;99.90;;;;;;5054136;28;20133;-59
2023/11/07 07:14:19;;;;;;;3.35;1.30;;;10.50;99.90;;;;;;5066800;28;20045;-60
2023/11/07 07:17:07;;;;;;;4.47;1.70;;;10.50;99.90;;;;;;5069097;28;20045;-59
2023/11/07 07:19:53;;;;;;;3.75;2.08;;;10.50;99.90;;;;;;5050615;28;20139;-60
2023/11/07 07:22:47;;;;;;;3.10;1.80;;;10.50;99.90;;;;;;5068066;28;20052;-58
2023/11/07 07:25:35;;;;;;;10.70;2.67;;;10.60;99.90;;;;;;5069472;28;20044;-59
2023/11/07 07:28:21;;;;;;;5.70;2.00;;;10.60;99.90;;;;;;5069404;28;20060;-59
2023/11/07 07:31:07;;;;;;;2.35;1.55;;;10.60;99.90;;;;;;5069538;28;20041;-58
2023/11/07 07:33:56;;;;;;;2.95;1.80;;;10.60;99.90;;;;;;5069558;28;20044;-59
2023/11/07 07:36:45;;;;;;;2.35;1.50;;;10.70;99.90;;;;;;5068736;28;20257;-59
2023/11/07 07:39:32;;;;;;;3.85;1.70;;;10.70;99.90;;;;;;5055755;28;20037;-59
2023/11/07 07:42:19;;;;;;;3.10;1.73;;;10.70;99.90;;;;;;5050535;28;20406;-59
2023/11/07 07:45:07;;;;;;;7.18;1.55;;;10.80;99.90;;;;;;5050413;28;20087;-58
2023/11/07 07:47:53;;;;;;;4.30;1.73;;;10.80;99.90;;;;;;5050992;28;20140;-59
2023/11/07 07:50:42;;;;;;;4.07;2.20;;;10.80;99.90;;;;;;5050337;28;20045;-59
2023/11/07 07:53:28;;;;;;;3.65;1.52;;;10.90;99.90;;;;;;5049224;28;20045;-59
2023/11/07 07:56:14;;;;;;;2.78;1.73;;;10.90;99.90;;;;;;5049174;28;20037;-59
2023/11/07 07:59:00;;;;;;;2.92;1.52;;;10.90;99.90;;;;;;5055237;28;20036;-59
2023/11/07 08:01:46;;;;;;;3.10;1.42;;;11.00;99.90;;;;;;5049098;28;20048;-59
2023/11/07 08:04:32;;;;;;;3.83;2.13;;;11.10;99.90;;;;;;5049229;28;20553;-59
2023/11/07 08:07:18;;;;;;;3.78;1.33;;;11.10;99.90;;;;;;5049326;28;20486;-63
2023/11/07 08:10:10;;;;;;;3.70;1.70;;;11.10;99.90;;;;;;5050450;28;20052;-59
2023/11/07 08:12:56;;;;;;;4.38;1.63;;;11.20;99.90;;;;;;5057772;28;20054;-58
2023/11/07 08:15:42;;;;;;;3.60;1.38;;;11.20;99.90;;;;;;5063575;28;20086;-59
2023/11/07 08:18:29;;;;;;;4.20;1.30;;;11.30;99.90;;;;;;5064901;28;20037;-61
2023/11/07 08:21:15;;;;;;;2.45;1.30;;;11.30;99.90;;;;;;5047751;28;20444;-59
2023/11/07 08:24:01;;;;;;;1.60;1.30;;;11.40;99.90;;;;;;5034829;28;20041;-59
2023/11/07 08:26:47;;;;;;;4.22;1.40;;;11.40;99.90;;;;;;5052728;28;20067;-60
2023/11/07 08:29:33;;;;;;;3.80;1.75;;;11.50;99.90;;;;;;5048225;28;20044;-60
2023/11/07 08:32:19;;;;;;;3.83;1.60;;;11.50;99.90;;;;;;5048994;28;20045;-61
2023/11/07 08:35:06;;;;;;;2.63;1.52;;;11.50;99.90;;;;;;5047846;28;20406;-59
2023/11/07 08:37:52;;;;;;;2.60;1.58;;;11.60;99.90;;;;;;5046148;28;20138;-60
2023/11/07 08:40:38;;;;;;;4.53;1.90;;;11.70;99.90;;;;;;5066687;28;20049;-59
2023/11/07 08:43:24;;;;;;;3.65;1.73;;;11.70;99.90;;;;;;5048168;28;20091;-60
2023/11/07 08:46:10;;;;;;;3.20;1.50;;;11.70;99.90;;;;;;5034878;28;20589;-60
2023/11/07 08:48:56;;;;;;;2.55;1.88;;;11.80;99.90;;;;;;5049376;28;20495;-59
2023/11/07 08:51:43;;;;;;;2.35;1.30;;;11.80;99.90;;;;;;5048136;28;20442;-59
2023/11/07 08:54:29;;;;;;;2.13;1.40;;;11.90;99.90;;;;;;5048834;28;20033;-59
2023/11/07 08:57:15;;;;;;;4.53;2.30;;;11.90;99.90;;;;;;5049843;28;20049;-61
2023/11/07 09:00:01;;;;;;;2.33;1.55;;;11.90;99.90;;;;;;5048444;28;20037;-59
2023/11/07 09:02:51;;;;;;;3.63;1.73;;;11.90;99.90;;;;;;5048167;28;20486;-59
2023/11/07 09:05:38;;;;;;;5.15;1.90;;;12.00;99.90;;;;;;5049237;28;20041;-59
2023/11/07 09:08:24;;;;;;;2.95;1.33;;;12.10;99.90;;;;;;5048971;28;20044;-71
2023/11/07 09:11:09;;;;;;;5.70;1.73;;;12.10;99.90;;;;;;5049585;28;20091;-70
2023/11/07 09:13:55;;;;;;;3.13;1.50;;;12.10;99.90;;;;;;5062303;28;20064;-70
2023/11/07 09:16:41;;;;;;;4.15;1.75;;;12.20;99.90;;;;;;5048494;28;20467;-72
2023/11/07 09:19:27;;;;;;;6.65;2.05;;;12.30;99.90;;;;;;5054569;28;20037;-69
2023/11/07 09:22:13;;;;;;;2.10;1.25;;;12.30;99.90;;;;;;5047820;28;20052;-69
2023/11/07 09:24:59;;;;;;;2.22;1.17;;;12.40;99.90;;;;;;5056855;28;20497;-71
2023/11/07 09:27:47;;;;;;;2.20;1.60;;;12.50;99.90;;;;;;5053126;28;20048;-71
2023/11/07 09:30:33;;;;;;;2.85;1.15;;;12.60;99.90;;;;;;5056045;28;20060;-71
2023/11/07 09:33:19;;;;;;;3.45;1.35;;;12.70;99.90;;;;;;5048861;28;20045;-71
2023/11/07 09:36:06;;;;;;;1.88;1.30;;;12.80;99.90;;;;;;5046111;28;20048;-71
2023/11/07 09:38:52;;;;;;;2.20;1.38;;;12.90;99.90;;;;;;5067091;28;20048;-71
2023/11/07 09:41:42;;;;;;;1.88;1.35;;;13.00;99.90;;;;;;5068631;28;20040;-72
2023/11/07 09:44:27;;;;;;;3.10;1.30;;;13.20;99.90;;;;;;5068152;28;20102;-71
2023/11/07 09:47:14;;;;;;;2.72;1.20;;;13.30;99.90;;;;;;5067988;28;20395;-71
2023/11/07 09:50:02;;;;;;;2.58;1.20;;;13.30;99.90;;;;;;5068805;28;20393;-71
2023/11/07 09:52:50;;;;;;;3.78;1.33;;;13.40;99.90;;;;;;5069505;28;20043;-72
2023/11/07 09:55:38;;;;;;;3.28;1.05;;;13.50;99.90;;;;;;5058785;28;20459;-72
2023/11/07 09:58:29;;;;;;;2.42;1.52;;;13.50;99.90;;;;;;5048196;28;20040;-71
2023/11/07 10:01:15;;;;;;;2.45;1.58;;;13.60;99.90;;;;;;5051285;28;20201;-70
2023/11/07 10:04:02;;;;;;;7.40;2.70;;;13.70;99.90;;;;;;5066943;28;20028;-71
2023/11/07 10:06:48;;;;;;;6.28;3.10;;;13.70;99.90;;;;;;5064083;28;21088;-71
2023/11/07 10:09:34;;;;;;;2.70;1.40;;;13.80;99.90;;;;;;5070986;28;20033;-71
2023/11/07 10:12:20;;;;;;;3.50;1.90;;;13.80;99.80;;;;;;5071533;28;20552;-70
2023/11/07 10:15:19;;;;;;;2.67;1.38;;;13.90;99.70;;;;;;5072234;28;20033;-71
2023/11/07 10:18:10;;;;;;;2.45;1.20;;;13.90;99.50;;;;;;5070023;28;20075;-72
2023/11/07 10:20:59;;;;;;;6.03;1.75;;;13.90;99.40;;;;;;5052546;28;20140;-70
2023/11/07 10:23:53;;;;;;;4.07;1.48;;;13.90;99.20;;;;;;5052499;28;20137;-72
2023/11/07 10:26:52;;;;;;;5.97;1.35;;;13.90;99.10;;;;;;5057845;28;20067;-73
2023/11/07 10:29:51;;;;;;;1.98;1.45;;;13.90;99.00;;;;;;5074743;28;20036;-72
2023/11/07 10:32:47;;;;;;;3.53;1.67;;;13.90;99.00;;;;;;5068336;28;20131;-70
2023/11/07 10:35:53;;;;;;;3.50;1.30;;;13.80;98.90;;;;;;5069978;28;20045;-70
2023/11/07 10:38:39;;;;;;;3.15;0.95;;;13.80;98.80;;;;;;5064638;28;20041;-72
2023/11/07 10:41:28;;;;;;;2.55;1.58;;;13.80;98.70;;;;;;5052324;28;20087;-70
2023/11/07 10:44:27;;;;;;;2.67;1.35;;;13.80;98.60;;;;;;5051035;28;20033;-70
2023/11/07 10:47:14;;;;;;;1.48;0.85;;;13.80;98.60;;;;;;5050806;28;20464;-69
2023/11/07 10:50:01;;;;;;;2.40;1.40;;;13.80;98.60;;;;;;5051622;28;20394;-71
2023/11/07 10:52:48;;;;;;;2.53;1.10;;;13.80;98.60;;;;;;5050890;28;20059;-71
2023/11/07 10:55:34;;;;;;;3.35;1.83;;;13.80;98.60;;;;;;5051449;28;20068;-71
2023/11/07 10:58:23;;;;;;;2.95;1.33;;;13.90;98.70;;;;;;5050721;28;20060;-71
2023/11/07 11:01:11;;;;;;;3.95;2.03;;;14.00;98.60;;;;;;5052585;28;20041;-72
2023/11/07 11:04:00;;;;;;;1.75;1.20;;;14.00;98.70;;;;;;5050802;28;20056;-70
2023/11/07 11:06:52;;;;;;;2.67;1.30;;;14.10;98.60;;;;;;5051110;28;20512;-72
2023/11/07 11:09:41;;;;;;;3.03;1.25;;;14.10;98.60;;;;;;5065528;28;20053;-71
2023/11/07 11:12:27;;;;;;;2.40;1.40;;;14.20;98.50;;;;;;5050314;28;20036;-72
2023/11/07 11:15:13;;;;;;;2.80;1.20;;;14.30;98.40;;;;;;5068133;28;20036;-70
2023/11/07 11:18:13;;;;;;;2.35;1.25;;;14.40;98.30;;;;;;5058176;28;20708;-73
2023/11/07 11:21:09;;;;;;;2.30;1.48;;;14.50;98.20;;;;;;5051138;28;20080;-73
2023/11/07 11:24:07;;;;;;;4.78;1.65;;;14.50;98.10;;;;;;5051321;28;20045;-72
2023/11/07 11:26:58;;;;;;;3.67;1.70;;;14.60;98.10;;;;;;5064612;28;20425;-71
2023/11/07 11:29:46;;;;;;;2.92;1.70;;;14.70;98.10;;;;;;5069339;28;20413;-72
2023/11/07 11:32:32;;;;;;;4.72;2.28;;;14.80;98.10;;;;;;5087576;28;20043;-70
2023/11/07 11:35:19;;;;;;;6.28;2.30;;;14.80;98.00;;;;;;5090156;28;20043;-72
2023/11/07 11:38:16;;;;;;;5.97;2.05;;;14.90;97.80;;;;;;5090002;28;20032;-71
2023/11/07 11:41:02;;;;;;;2.75;1.52;;;15.00;97.70;;;;;;5090544;28;20165;-71
2023/11/07 11:44:24;;;;;;;4.03;1.80;;;15.00;97.60;;;;;;5074307;28;20498;-71
2023/11/07 11:47:51;;;;;;;3.28;1.33;;;15.00;97.50;;;;;;4991371;28;20121;-59
2023/11/07 11:50:37;;;;;;;3.78;1.60;;;15.10;97.30;;;;;;4999213;28;20116;-60
2023/11/07 11:53:32;;;;;;;3.28;1.58;;;15.10;97.20;;;;;;5007445;28;20476;-60
2023/11/07 11:56:18;;;;;;;2.20;1.10;;;15.20;97.00;;;;;;4994927;28;20030;-60
2023/11/07 11:59:06;;;;;;;3.22;1.27;;;15.20;96.90;;;;;;4990514;28;20121;-60
2023/11/07 12:01:54;;;;;;;2.95;2.05;;;15.20;96.70;;;;;;4987061;28;20121;-60
2023/11/07 12:04:48;;;;;;;5.13;1.88;;;15.20;96.60;;;;;;4959531;28;20050;-59
2023/11/07 12:07:33;;;;;;;3.13;1.65;;;15.30;96.40;;;;;;4968790;28;20134;-60
2023/11/07 12:10:27;;;;;;;3.42;1.80;;;15.30;96.40;;;;;;4969305;28;20055;-60
2023/11/07 12:13:13;;;;;;;1.85;1.10;;;15.30;96.40;;;;;;4979216;28;20035;-60
2023/11/07 12:16:15;;;;;;;2.65;1.25;;;15.30;96.30;;;;;;4990567;28;20046;-60
2023/11/07 12:19:02;;;;;;;1.42;1.00;;;15.30;96.30;;;;;;4987717;28;20038;-58
2023/11/07 12:21:55;;;;;;;3.72;1.63;;;15.20;96.20;;;;;;5070971;28;20040;-61
2023/11/07 12:24:42;;;;;;;2.92;1.35;;;15.20;96.20;;;;;;5068465;28;20044;-60
2023/11/07 12:27:28;;;;;;;4.97;1.70;;;15.20;96.10;;;;;;5062651;28;20049;-60
2023/11/07 12:30:16;;;;;;;3.10;1.50;;;15.20;96.30;;;;;;5068046;28;20035;-59
2023/11/07 12:33:03;;;;;;;2.65;1.20;;;15.30;96.00;;;;;;5067935;28;20044;-59
2023/11/07 12:35:56;;;;;;;2.72;1.23;;;15.30;96.00;;;;;;5068165;28;20127;-59
2023/11/07 12:38:43;;;;;;;2.20;1.80;;;15.30;96.00;;;;;;5058128;28;20063;-60
2023/11/07 12:41:32;;;;;;;6.50;1.92;;;15.30;95.90;;;;;;5068629;28;20051;-60
2023/11/07 12:44:18;;;;;;;2.83;1.33;;;15.30;96.00;;;;;;5068230;28;20037;-59
2023/11/07 12:47:10;;;;;;;2.25;1.52;;;15.30;95.80;;;;;;5068551;28;20055;-59
2023/11/07 12:49:56;;;;;;;2.47;1.40;;;15.30;95.70;;;;;;5067619;28;20098;-59
2023/11/07 12:52:55;;;;;;;4.93;1.70;;;15.30;95.60;;;;;;5048843;28;20041;-60
2023/11/07 12:55:51;;;;;;;1.58;1.10;;;15.40;95.40;;;;;;5048284;28;20044;-59
2023/11/07 12:58:37;;;;;;;2.17;1.50;;;15.40;95.30;;;;;;5048635;28;20414;-59
2023/11/07 13:01:23;;;;;;;2.10;1.23;;;15.40;95.20;;;;;;5055922;28;20032;-60
2023/11/07 13:04:14;;;;;;;3.70;2.17;;;15.30;95.10;;;;;;5061887;28;20123;-59
2023/11/07 13:07:00;;;;;;;2.22;1.52;;;15.30;94.90;;;;;;5067790;28;20063;-60
2023/11/07 13:09:48;;;;;;;3.00;1.27;;;15.30;94.80;;;;;;5064230;28;20044;-60
2023/11/07 13:12:36;;;;;;;2.88;1.02;;;15.30;94.70;;;;;;5067212;28;20041;-60
2023/11/07 13:15:22;;;;;;;2.70;1.27;;;15.20;94.70;;;;;;5077871;28;20040;-61
2023/11/07 13:18:13;;;;;;;1.90;1.13;;;15.20;94.70;;;;;;5052063;28;20044;-61
2023/11/07 13:20:59;;;;;;;2.00;1.20;;;15.10;94.70;;;;;;5049675;28;20107;-62
2023/11/07 13:23:45;;;;;;;2.13;1.20;;;15.10;94.60;;;;;;5048212;28;20524;-62
2023/11/07 13:26:31;;;;;;;1.55;1.10;;;15.10;94.60;;;;;;5061168;28;20048;-61
2023/11/07 13:29:21;;;;;;;6.30;1.27;;;15.00;94.60;;;;;;5048856;28;20048;-61
2023/11/07 13:32:07;;;;;;;1.90;1.42;;;15.00;94.70;;;;;;5059290;28;20045;-61
2023/11/07 13:34:54;;;;;;;1.83;1.30;;;15.00;94.70;;;;;;5061299;28;20041;-65
2023/11/07 13:37:40;;;;;;;4.25;1.30;;;15.00;94.60;;;;;;5053273;28;20045;-60
2023/11/07 13:40:26;;;;;;;1.17;0.95;;;15.00;94.60;;;;;;5060894;28;20037;-61
2023/11/07 13:43:13;;;;;;;3.15;1.23;;;15.00;94.60;;;;;;5052544;28;20041;-60
2023/11/07 13:45:59;;;;;;;3.10;1.20;;;15.00;94.70;;;;;;5058060;28;20055;-60
2023/11/07 13:48:45;;;;;;;2.92;1.30;;;15.00;94.60;;;;;;5052010;28;20041;-59
2023/11/07 13:51:31;;;;;;;3.40;1.30;;;15.10;94.60;;;;;;5080091;28;20515;-61
2023/11/07 13:54:17;;;;;;;1.95;1.17;;;15.00;94.60;;;;;;5071849;28;20489;-61
2023/11/07 13:57:03;;;;;;;3.75;1.33;;;15.00;94.60;;;;;;5052704;28;20383;-61
2023/11/07 13:59:50;;;;;;;2.72;1.50;;;15.00;94.60;;;;;;5065792;28;20036;-61
2023/11/07 14:02:40;;;;;;;2.65;1.40;;;15.10;94.70;;;;;;5064554;28;20456;-60
2023/11/07 14:05:26;;;;;;;3.72;2.05;;;15.10;94.70;;;;;;5051848;28;20052;-60
2023/11/07 14:08:11;;;;;;;3.53;2.20;;;15.10;94.70;;;;;;5062184;28;20049;-61
2023/11/07 14:10:57;;;;;;;3.55;2.53;;;15.00;94.70;;;;;;5056251;28;20045;-61
2023/11/07 14:13:44;;;;;;;3.40;1.90;;;15.00;94.60;;;;;;5059660;28;20036;-62
2023/11/07 14:16:32;;;;;;;3.90;1.92;;;14.90;94.80;;;;;;5065226;28;20520;-60
2023/11/07 14:19:18;;;;;;;5.78;2.00;;;14.90;94.60;;;;;;5066068;28;20478;-60
2023/11/07 14:22:06;;;;;;;3.20;1.60;;;14.80;94.60;;;;;;5052272;28;20582;-61
2023/11/07 14:24:53;;;;;;;4.15;2.17;;;14.80;94.50;;;;;;5051099;28;20037;-63
2023/11/07 14:27:46;;;;;;;3.78;2.00;;;14.70;94.50;;;;;;5062757;28;20045;-60
2023/11/07 14:30:36;;;;;;;2.15;1.50;;;14.70;94.50;;;;;;5053033;28;20037;-60
2023/11/07 14:33:22;;;;;;;2.55;1.27;;;14.60;94.60;;;;;;5071558;28;20444;-61
2023/11/07 14:36:11;;;;;;;2.08;1.70;;;14.60;94.60;;;;;;5067964;28;20103;-60
2023/11/07 14:38:57;;;;;;;3.33;1.73;;;14.50;94.70;;;;;;5051136;28;20049;-61